Time;durP1;ratioP1;P1;durP2;ratioP2;P2;SDS_P1;SDS_P2;PMS_P1;PMS_P2;Temp;Humidity;BMP_temperature;BMP_pressure;BME280_temperature;BME280_humidity;BME280_pressure;Samples;Min_cycle;Max_cycle;Signal;HPM_P1;HPM_P2
2023/07/05 00:00:23;;;;;;;3.25;2.95;;;16.30;99.90;;;;;;6249811;28;20509;-79
2023/07/05 00:03:25;;;;;;;3.38;2.35;;;16.30;99.90;;;;;;6249556;28;20052;-79
2023/07/05 00:06:26;;;;;;;2.42;2.13;;;16.30;99.90;;;;;;6249821;28;20397;-80
2023/07/05 00:09:28;;;;;;;5.45;2.97;;;16.30;99.90;;;;;;6251146;28;20076;-81
2023/07/05 00:12:31;;;;;;;4.97;3.63;;;16.40;99.90;;;;;;6250822;28;20076;-80
2023/07/05 00:15:33;;;;;;;4.07;2.83;;;16.60;99.90;;;;;;6250124;28;20052;-79
2023/07/05 00:18:34;;;;;;;3.40;2.88;;;16.70;99.90;;;;;;6248770;28;20522;-78
2023/07/05 00:21:36;;;;;;;14.07;4.80;;;16.70;99.90;;;;;;6250862;28;20427;-78
2023/07/05 00:24:38;;;;;;;7.10;4.53;;;16.60;99.90;;;;;;6252511;28;20057;-79
2023/07/05 00:27:41;;;;;;;12.93;5.55;;;16.60;99.90;;;;;;6253876;28;20053;-79
2023/07/05 00:30:44;;;;;;;9.68;4.18;;;16.60;99.90;;;;;;6253299;28;20049;-79
2023/07/05 00:33:45;;;;;;;8.15;4.03;;;16.60;99.90;;;;;;6254082;28;20488;-80
2023/07/05 00:36:47;;;;;;;3.95;3.55;;;16.60;99.90;;;;;;6254122;28;20504;-79
2023/07/05 00:39:49;;;;;;;7.80;4.82;;;16.70;99.90;;;;;;6253600;28;20042;-80
2023/07/05 00:42:51;;;;;;;6.47;5.10;;;16.60;99.90;;;;;;6254250;28;20045;-79
2023/07/05 00:45:57;;;;;;;7.80;4.40;;;16.50;99.90;;;;;;6256943;28;20041;-80
2023/07/05 00:49:01;;;;;;;8.80;4.82;;;16.50;99.90;;;;;;6256771;28;20543;-80
2023/07/05 00:52:05;;;;;;;6.65;5.20;;;16.50;99.90;;;;;;6245936;28;20085;-80
2023/07/05 00:55:08;;;;;;;8.85;4.80;;;16.50;99.90;;;;;;6247716;28;20060;-79
2023/07/05 00:58:11;;;;;;;9.32;5.00;;;16.50;99.90;;;;;;6255975;28;20045;-77
2023/07/05 01:01:13;;;;;;;13.98;5.78;;;16.50;99.90;;;;;;6257716;28;20054;-79
2023/07/05 01:04:15;;;;;;;21.15;8.60;;;16.50;99.90;;;;;;6257652;28;20068;-78
2023/07/05 01:07:16;;;;;;;6.97;5.00;;;16.50;99.90;;;;;;6254565;28;20048;-79
2023/07/05 01:10:21;;;;;;;9.13;5.07;;;16.40;99.90;;;;;;6254209;28;20048;-78
2023/07/05 01:13:31;;;;;;;11.77;6.22;;;16.30;99.90;;;;;;6253851;28;20049;-78
2023/07/05 01:16:47;;;;;;;11.63;5.57;;;16.30;99.90;;;;;;6255591;28;20076;-79
2023/07/05 01:20:00;;;;;;;8.23;5.13;;;16.30;99.90;;;;;;6253214;28;20049;-79
2023/07/05 01:23:40;;;;;;;7.88;5.38;;;16.40;99.90;;;;;;6255884;28;20052;-79
2023/07/05 01:27:23;;;;;;;10.38;5.82;;;16.40;99.90;;;;;;6255988;28;20049;-79
2023/07/05 01:30:58;;;;;;;7.25;4.50;;;16.40;99.90;;;;;;6256924;28;20405;-78
2023/07/05 01:34:08;;;;;;;10.30;4.82;;;16.30;99.90;;;;;;6252896;28;20392;-78
2023/07/05 01:37:21;;;;;;;9.27;5.45;;;16.40;99.90;;;;;;6250884;28;20049;-79
2023/07/05 01:40:56;;;;;;;10.13;4.95;;;16.40;99.90;;;;;;6251831;28;20049;-79
2023/07/05 01:43:58;;;;;;;11.73;5.25;;;16.40;99.90;;;;;;6251393;28;20049;-78
2023/07/05 01:47:06;;;;;;;9.65;4.93;;;16.40;99.90;;;;;;6251865;28;20046;-78
2023/07/05 01:50:20;;;;;;;10.82;5.28;;;16.40;99.90;;;;;;6251851;28;20129;-79
2023/07/05 01:53:27;;;;;;;9.43;6.40;;;16.40;99.90;;;;;;6251566;28;20041;-78
2023/07/05 01:56:33;;;;;;;7.83;5.83;;;16.40;99.90;;;;;;6251517;28;20053;-79
2023/07/05 01:59:40;;;;;;;11.88;5.93;;;16.40;99.90;;;;;;6250964;28;20072;-79
2023/07/05 02:02:45;;;;;;;13.75;6.50;;;16.40;99.90;;;;;;6251453;28;20046;-79
2023/07/05 02:05:49;;;;;;;13.02;6.53;;;16.40;99.90;;;;;;6250894;28;20104;-79
2023/07/05 02:08:51;;;;;;;10.70;6.13;;;16.50;99.90;;;;;;6251156;28;20422;-79
2023/07/05 02:11:53;;;;;;;8.70;6.15;;;16.50;99.90;;;;;;6249958;28;20045;-79
2023/07/05 02:14:55;;;;;;;8.75;4.65;;;16.50;99.90;;;;;;6250358;28;20052;-80
2023/07/05 02:17:56;;;;;;;6.93;4.97;;;16.40;99.90;;;;;;6251163;28;20056;-78
2023/07/05 02:20:59;;;;;;;7.93;4.95;;;16.50;99.90;;;;;;6251096;28;20084;-78
2023/07/05 02:24:01;;;;;;;9.52;5.88;;;16.50;99.90;;;;;;6250633;28;20053;-78
2023/07/05 02:27:03;;;;;;;11.30;5.72;;;16.50;99.90;;;;;;6251156;28;20053;-78
2023/07/05 02:30:09;;;;;;;8.73;5.00;;;16.50;99.90;;;;;;6248481;28;20052;-78
2023/07/05 02:33:11;;;;;;;8.98;6.00;;;16.60;99.90;;;;;;6250864;28;20051;-78
2023/07/05 02:36:17;;;;;;;9.20;5.75;;;16.60;99.90;;;;;;6250422;28;20052;-79
2023/07/05 02:39:19;;;;;;;10.30;6.00;;;16.60;99.90;;;;;;6249745;28;20045;-78
2023/07/05 02:42:21;;;;;;;8.20;6.13;;;16.60;99.90;;;;;;6249496;28;20535;-78
2023/07/05 02:45:23;;;;;;;12.00;6.35;;;16.60;99.90;;;;;;6249553;28;20049;-79
2023/07/05 02:48:24;;;;;;;7.45;5.65;;;16.70;99.90;;;;;;6249509;28;20057;-79
2023/07/05 02:51:29;;;;;;;12.27;5.78;;;16.70;99.90;;;;;;6249698;28;20049;-80
2023/07/05 02:54:31;;;;;;;13.55;6.05;;;16.80;99.90;;;;;;6248881;28;20049;-79
2023/07/05 02:57:33;;;;;;;9.93;6.30;;;16.80;99.90;;;;;;6248689;28;20049;-79
2023/07/05 03:00:34;;;;;;;11.65;6.72;;;16.90;99.90;;;;;;6249784;28;20424;-78
2023/07/05 03:03:36;;;;;;;11.43;5.65;;;16.90;99.90;;;;;;6249095;28;20053;-78
2023/07/05 03:06:39;;;;;;;7.57;5.00;;;16.90;99.90;;;;;;6249368;28;20049;-79
2023/07/05 03:09:41;;;;;;;13.45;5.75;;;16.90;99.90;;;;;;6248484;28;20042;-78
2023/07/05 03:12:42;;;;;;;6.43;5.18;;;16.90;99.90;;;;;;6249791;28;20053;-79
2023/07/05 03:15:44;;;;;;;8.88;5.30;;;16.90;99.90;;;;;;6250029;28;20052;-78
2023/07/05 03:18:46;;;;;;;11.63;6.47;;;16.90;99.90;;;;;;6249036;28;20041;-79
2023/07/05 03:21:49;;;;;;;14.20;8.88;;;16.90;99.90;;;;;;6249123;28;20049;-78
2023/07/05 03:24:51;;;;;;;6.35;4.80;;;17.00;99.90;;;;;;6249140;28;20049;-80
2023/07/05 03:27:53;;;;;;;8.65;5.47;;;17.00;99.90;;;;;;6248429;28;20061;-78
2023/07/05 03:30:57;;;;;;;9.07;7.15;;;17.00;99.90;;;;;;6251465;28;20048;-81
2023/07/05 03:33:59;;;;;;;8.35;5.70;;;17.10;99.90;;;;;;6260040;28;20060;-80
2023/07/05 03:37:02;;;;;;;6.70;5.80;;;17.10;99.90;;;;;;6261160;28;20056;-81
2023/07/05 03:40:04;;;;;;;10.23;6.03;;;17.20;99.90;;;;;;6262432;28;20042;-82
2023/07/05 03:43:06;;;;;;;9.30;5.85;;;17.20;99.90;;;;;;6261446;28;20041;-81
2023/07/05 03:46:11;;;;;;;6.82;5.25;;;17.20;99.90;;;;;;6261009;28;20474;-81
2023/07/05 03:49:13;;;;;;;6.40;4.32;;;17.20;99.90;;;;;;6261956;28;20061;-82
2023/07/05 03:52:16;;;;;;;9.35;5.05;;;17.20;99.90;;;;;;6261844;28;20049;-80
2023/07/05 03:55:17;;;;;;;14.05;5.63;;;17.30;99.90;;;;;;6260713;28;20511;-81
2023/07/05 03:58:20;;;;;;;7.95;5.78;;;17.30;99.90;;;;;;6260538;28;20090;-81
2023/07/05 04:01:24;;;;;;;7.43;4.72;;;17.40;99.90;;;;;;6263589;28;20063;-80
2023/07/05 04:04:25;;;;;;;8.73;4.18;;;17.40;99.90;;;;;;6266192;28;20050;-80
2023/07/05 04:07:29;;;;;;;7.30;4.85;;;17.50;99.90;;;;;;6262906;28;20061;-82
2023/07/05 04:10:30;;;;;;;4.97;4.20;;;17.40;99.90;;;;;;6264747;28;20069;-81
2023/07/05 04:13:32;;;;;;;4.68;3.95;;;17.50;99.90;;;;;;6265857;28;20057;-81
2023/07/05 04:16:34;;;;;;;4.63;4.20;;;17.40;99.90;;;;;;6266180;28;20318;-81
2023/07/05 04:19:36;;;;;;;7.43;5.90;;;17.50;99.90;;;;;;6263809;28;20064;-81
2023/07/05 04:22:41;;;;;;;9.02;5.35;;;17.50;99.90;;;;;;6263818;28;20060;-81
2023/07/05 04:25:43;;;;;;;6.47;4.47;;;17.60;99.90;;;;;;6263174;28;20049;-81
2023/07/05 04:28:45;;;;;;;5.88;5.32;;;17.70;99.90;;;;;;6263307;28;20408;-81
2023/07/05 04:31:47;;;;;;;6.85;4.65;;;17.80;99.90;;;;;;6262542;28;20050;-81
2023/07/05 04:34:48;;;;;;;6.18;4.88;;;17.90;99.90;;;;;;6262813;28;20105;-81
2023/07/05 04:37:51;;;;;;;8.18;3.90;;;17.90;99.90;;;;;;6261694;28;20065;-82
2023/07/05 04:40:53;;;;;;;7.78;6.32;;;18.00;99.90;;;;;;6262790;28;20055;-81
2023/07/05 04:43:55;;;;;;;11.45;5.13;;;18.00;99.90;;;;;;6262553;28;20048;-80
2023/07/05 04:46:57;;;;;;;8.88;4.78;;;18.10;99.90;;;;;;6261181;28;20060;-80
2023/07/05 04:49:58;;;;;;;18.38;6.15;;;18.10;99.90;;;;;;6260601;28;20059;-78
2023/07/05 04:53:01;;;;;;;8.57;4.75;;;18.00;99.90;;;;;;6261785;28;20064;-78
2023/07/05 04:56:03;;;;;;;9.43;5.40;;;17.80;99.90;;;;;;6260837;28;20033;-79
2023/07/05 04:59:05;;;;;;;8.73;4.57;;;17.80;99.90;;;;;;6260403;28;20532;-79
2023/07/05 05:02:07;;;;;;;7.47;4.80;;;17.70;99.90;;;;;;6261799;28;20050;-78
2023/07/05 05:05:09;;;;;;;9.52;5.53;;;17.60;99.90;;;;;;6263329;28;20140;-78
2023/07/05 05:08:13;;;;;;;7.32;4.85;;;17.60;99.90;;;;;;6261605;28;20049;-78
2023/07/05 05:11:14;;;;;;;8.27;5.47;;;17.60;99.90;;;;;;6261194;28;20049;-78
2023/07/05 05:14:16;;;;;;;10.35;4.75;;;17.40;99.90;;;;;;6261367;28;20056;-79
2023/07/05 05:17:17;;;;;;;5.78;4.43;;;17.40;99.90;;;;;;6262089;28;20060;-80
2023/07/05 05:20:19;;;;;;;7.32;4.93;;;17.30;99.90;;;;;;6260108;28;20052;-79
2023/07/05 05:23:22;;;;;;;6.50;5.07;;;17.30;99.90;;;;;;6263151;28;20050;-79
2023/07/05 05:26:24;;;;;;;5.90;4.78;;;17.30;99.90;;;;;;6261725;28;20052;-80
2023/07/05 05:29:25;;;;;;;8.02;5.38;;;17.50;99.90;;;;;;6262988;28;20049;-79
2023/07/05 05:32:27;;;;;;;6.97;4.38;;;17.60;99.90;;;;;;6260646;28;20049;-80
2023/07/05 05:35:30;;;;;;;8.10;4.50;;;17.50;99.90;;;;;;6260665;28;20041;-79
2023/07/05 05:38:35;;;;;;;5.97;4.22;;;17.50;99.90;;;;;;6260544;28;20037;-80
2023/07/05 05:41:37;;;;;;;4.78;3.95;;;17.60;99.90;;;;;;6259034;28;20064;-79
2023/07/05 05:44:39;;;;;;;8.98;3.42;;;17.60;99.90;;;;;;6260242;28;20060;-80
2023/07/05 05:47:40;;;;;;;8.00;3.38;;;17.70;99.90;;;;;;6259149;28;20049;-79
2023/07/05 05:50:42;;;;;;;2.92;2.63;;;18.40;99.90;;;;;;6261106;28;20045;-79
2023/07/05 05:53:45;;;;;;;3.10;2.85;;;19.10;99.90;;;;;;6261800;28;20408;-81
2023/07/05 05:56:47;;;;;;;4.93;3.03;;;19.10;99.90;;;;;;6262704;28;20057;-80
2023/07/05 05:59:48;;;;;;;7.20;2.83;;;19.10;99.90;;;;;;6262421;28;20041;-81
2023/07/05 06:02:51;;;;;;;3.83;2.95;;;19.30;99.90;;;;;;6256012;28;20049;-81
2023/07/05 06:05:54;;;;;;;3.28;2.50;;;19.20;99.90;;;;;;6263377;28;20061;-80
2023/07/05 06:08:57;;;;;;;3.60;2.35;;;19.70;99.90;;;;;;6263218;28;20056;-82
2023/07/05 06:11:59;;;;;;;3.05;2.25;;;20.60;99.90;;;;;;6263830;28;20041;-81
2023/07/05 06:15:01;;;;;;;3.65;2.40;;;21.70;99.90;;;;;;6265393;28;20107;-81
2023/07/05 06:18:02;;;;;;;4.32;2.65;;;22.40;99.90;;;;;;6262180;28;20056;-82
2023/07/05 06:21:04;;;;;;;5.05;2.60;;;22.10;99.90;;;;;;6247017;28;20057;-82
2023/07/05 06:24:08;;;;;;;7.93;2.80;;;21.30;99.90;;;;;;6245527;28;20052;-80
2023/07/05 06:27:10;;;;;;;2.08;1.63;;;20.70;99.90;;;;;;6246439;28;20513;-80
2023/07/05 06:30:41;;;;;;;4.15;2.63;;;20.50;99.90;;;;;;6241947;28;20042;-79
2023/07/05 06:33:50;;;;;;;3.25;2.85;;;19.90;99.90;;;;;;6273987;28;20228;-79
2023/07/05 06:36:52;;;;;;;3.83;2.57;;;19.40;99.90;;;;;;6256463;28;20045;-79
2023/07/05 06:39:55;;;;;;;3.55;2.38;;;19.80;99.90;;;;;;6256827;28;20291;-81
2023/07/05 06:42:57;;;;;;;2.88;2.58;;;20.10;99.90;;;;;;6238666;28;20041;-79
2023/07/05 06:45:59;;;;;;;3.17;2.88;;;20.90;99.90;;;;;;6239003;28;20061;-78
2023/07/05 06:49:01;;;;;;;3.38;2.67;;;21.60;99.90;;;;;;6241939;28;20049;-78
2023/07/05 06:52:02;;;;;;;6.78;2.50;;;21.80;99.90;;;;;;6240496;28;20504;-78
2023/07/05 06:55:06;;;;;;;6.20;2.85;;;22.00;99.90;;;;;;6235304;28;20041;-78
2023/07/05 06:58:08;;;;;;;3.92;2.88;;;22.30;99.90;;;;;;6238930;28;20041;-79
2023/07/05 07:01:09;;;;;;;4.53;3.00;;;22.80;99.90;;;;;;6238327;28;20045;-79
2023/07/05 07:04:11;;;;;;;4.50;3.75;;;23.20;99.90;;;;;;6238401;28;20045;-78
2023/07/05 07:07:13;;;;;;;3.35;2.45;;;23.50;99.90;;;;;;6238006;28;20053;-80
2023/07/05 07:10:16;;;;;;;8.25;3.92;;;23.00;99.90;;;;;;6240538;28;20053;-80
2023/07/05 07:13:18;;;;;;;6.20;4.82;;;22.60;99.90;;;;;;6240240;28;20056;-79
2023/07/05 07:16:20;;;;;;;4.85;3.15;;;22.10;99.90;;;;;;6239644;28;20049;-79
2023/07/05 07:19:21;;;;;;;7.30;4.30;;;21.80;99.90;;;;;;6246726;28;20069;-79
2023/07/05 07:22:24;;;;;;;5.10;3.40;;;22.00;99.90;;;;;;6251474;28;20452;-79
2023/07/05 07:25:28;;;;;;;4.63;3.45;;;22.80;99.90;;;;;;6247340;28;20060;-79
2023/07/05 07:28:29;;;;;;;6.32;3.78;;;23.40;99.90;;;;;;6247557;28;20057;-80
2023/07/05 07:31:33;;;;;;;7.47;4.10;;;23.80;99.90;;;;;;6248131;28;20421;-79
2023/07/05 07:34:34;;;;;;;5.63;3.72;;;23.60;99.90;;;;;;6248042;28;20476;-79
2023/07/05 07:37:36;;;;;;;4.93;4.03;;;23.70;99.90;;;;;;6256931;28;20053;-80
2023/07/05 07:40:39;;;;;;;5.38;4.05;;;23.60;99.90;;;;;;6257655;28;20049;-80
2023/07/05 07:43:41;;;;;;;7.85;3.58;;;23.90;99.90;;;;;;6258247;28;20041;-81
2023/07/05 07:46:43;;;;;;;4.43;3.85;;;24.30;99.90;;;;;;6257484;28;20049;-80
2023/07/05 07:49:45;;;;;;;5.00;4.43;;;24.40;99.90;;;;;;6259823;28;20060;-81
2023/07/05 07:52:47;;;;;;;5.55;4.03;;;24.50;99.90;;;;;;6258903;28;20041;-81
2023/07/05 07:55:50;;;;;;;5.50;4.13;;;24.80;99.90;;;;;;6257181;28;20088;-81
2023/07/05 07:58:53;;;;;;;9.15;3.95;;;24.80;99.90;;;;;;6257444;28;20049;-80
2023/07/05 08:01:55;;;;;;;8.40;3.75;;;25.00;99.90;;;;;;6256617;28;20056;-81
2023/07/05 08:04:57;;;;;;;3.85;3.05;;;25.20;99.90;;;;;;6257973;28;20050;-81
2023/07/05 08:07:58;;;;;;;7.18;3.67;;;25.20;99.90;;;;;;6259411;28;20070;-80
2023/07/05 08:11:02;;;;;;;6.55;3.88;;;25.30;99.90;;;;;;6255089;28;20187;-80
2023/07/05 08:14:03;;;;;;;6.28;3.58;;;25.20;99.90;;;;;;6255071;28;20513;-80
2023/07/05 08:17:06;;;;;;;6.57;2.78;;;24.90;99.90;;;;;;6254154;28;20060;-81
2023/07/05 08:20:08;;;;;;;5.72;3.25;;;24.60;99.90;;;;;;6252461;28;20048;-80
2023/07/05 08:23:10;;;;;;;4.80;3.38;;;24.40;99.90;;;;;;6251544;28;20057;-80
2023/07/05 08:26:13;;;;;;;13.35;10.98;;;24.70;99.90;;;;;;6251057;28;20084;-82
2023/07/05 08:29:15;;;;;;;7.32;2.78;;;25.00;99.90;;;;;;6250405;28;20046;-81
2023/07/05 08:32:18;;;;;;;7.35;4.00;;;25.40;99.90;;;;;;6250221;28;20052;-81
2023/07/05 08:35:20;;;;;;;7.05;3.40;;;25.20;99.90;;;;;;6249856;28;20045;-81
2023/07/05 08:38:22;;;;;;;3.97;3.20;;;24.60;99.90;;;;;;6250483;28;20042;-82
2023/07/05 08:41:37;;;;;;;5.40;3.20;;;24.20;99.90;;;;;;6250581;28;20052;-82
2023/07/05 08:44:56;;;;;;;4.10;3.42;;;24.10;99.90;;;;;;6226608;28;20057;-81
2023/07/05 08:48:01;;;;;;;8.40;3.60;;;24.20;99.90;;;;;;6224625;28;20054;-80
2023/07/05 08:51:05;;;;;;;6.60;3.40;;;24.10;99.90;;;;;;6226010;28;20057;-82
2023/07/05 08:54:10;;;;;;;4.88;3.47;;;24.30;99.90;;;;;;6230353;28;20065;-82
2023/07/05 08:57:20;;;;;;;5.93;3.38;;;24.20;99.90;;;;;;6226162;28;20093;-80
2023/07/05 09:00:26;;;;;;;6.95;3.50;;;23.90;99.90;;;;;;6225466;28;20426;-81
2023/07/05 09:03:29;;;;;;;5.22;3.80;;;24.30;99.90;;;;;;6225086;28;20046;-81
2023/07/05 09:06:35;;;;;;;6.43;3.97;;;24.70;99.90;;;;;;6225167;28;20049;-81
2023/07/05 09:09:51;;;;;;;3.38;2.67;;;24.90;99.90;;;;;;6225231;28;20076;-81
2023/07/05 09:13:04;;;;;;;5.38;2.60;;;25.10;99.90;;;;;;6225843;28;20113;-82
2023/07/05 09:16:14;;;;;;;4.65;3.00;;;25.40;99.90;;;;;;6225179;28;20053;-81
2023/07/05 09:19:28;;;;;;;4.72;3.55;;;25.40;99.90;;;;;;6226591;28;20049;-81
2023/07/05 09:22:34;;;;;;;2.88;2.53;;;25.20;99.90;;;;;;6246651;28;20504;-81
2023/07/05 09:25:38;;;;;;;4.23;2.70;;;25.20;99.90;;;;;;6245578;28;21504;-82
2023/07/05 09:28:48;;;;;;;5.85;2.85;;;24.80;99.50;;;;;;6245515;28;20045;-81
2023/07/05 09:31:51;;;;;;;9.70;3.33;;;24.70;99.90;;;;;;6245922;28;20059;-80
2023/07/05 09:34:58;;;;;;;4.70;2.90;;;25.10;99.90;;;;;;6245528;28;20037;-83
2023/07/05 09:38:10;;;;;;;4.25;2.92;;;25.20;99.90;;;;;;6245979;28;20057;-82
2023/07/05 09:41:17;;;;;;;4.13;2.58;;;25.40;99.90;;;;;;6246801;28;20060;-81
2023/07/05 09:44:21;;;;;;;5.93;3.88;;;25.70;99.50;;;;;;6246389;28;20153;-82
2023/07/05 09:47:23;;;;;;;3.10;2.33;;;25.70;98.80;;;;;;6245492;28;20485;-81
2023/07/05 09:50:24;;;;;;;2.83;2.50;;;25.50;97.00;;;;;;6241856;28;20041;-83
2023/07/05 09:53:39;;;;;;;3.15;2.58;;;24.80;94.60;;;;;;6239134;28;20053;-82
2023/07/05 09:56:56;;;;;;;3.60;2.38;;;24.50;95.60;;;;;;6243547;28;20134;-81
2023/07/05 10:00:04;;;;;;;3.10;2.60;;;24.70;96.40;;;;;;6241437;28;20047;-81
2023/07/05 10:03:11;;;;;;;3.33;2.80;;;25.10;95.30;;;;;;6241659;28;20538;-82
2023/07/05 10:06:12;;;;;;;4.43;1.85;;;25.30;95.00;;;;;;6243145;28;20052;-81
2023/07/05 10:09:16;;;;;;;4.70;2.47;;;25.50;95.00;;;;;;6244607;28;20056;-82
2023/07/05 10:12:18;;;;;;;7.10;2.25;;;25.40;94.60;;;;;;6240918;28;20049;-82
2023/07/05 10:15:23;;;;;;;5.03;2.42;;;25.20;93.00;;;;;;6241893;28;20152;-82
2023/07/05 10:18:27;;;;;;;9.88;4.05;;;24.90;92.00;;;;;;6239169;28;20060;-81
2023/07/05 10:21:29;;;;;;;6.70;2.40;;;24.80;93.60;;;;;;6240487;28;20493;-81
2023/07/05 10:24:34;;;;;;;3.63;2.65;;;24.60;92.60;;;;;;6242332;28;20052;-81
2023/07/05 10:27:38;;;;;;;3.53;2.13;;;24.30;91.80;;;;;;6237343;28;20051;-81
2023/07/05 10:30:51;;;;;;;7.50;2.13;;;24.10;91.30;;;;;;6238741;28;20042;-80
2023/07/05 10:34:05;;;;;;;5.05;2.00;;;24.20;89.60;;;;;;6239622;28;20049;-81
2023/07/05 10:37:27;;;;;;;3.42;2.30;;;24.70;88.70;;;;;;6238244;28;20053;-81
2023/07/05 10:40:31;;;;;;;2.47;1.70;;;25.50;88.20;;;;;;6238708;28;20415;-82
2023/07/05 10:43:33;;;;;;;4.88;2.28;;;26.30;87.50;;;;;;6237449;28;20420;-82
2023/07/05 10:46:38;;;;;;;3.20;2.25;;;26.40;83.70;;;;;;6239238;28;20495;-83
2023/07/05 10:49:43;;;;;;;4.25;2.63;;;26.10;80.80;;;;;;6236565;28;20493;-81
2023/07/05 10:52:52;;;;;;;7.50;2.65;;;26.00;80.60;;;;;;6238555;28;20049;-81
2023/07/05 10:56:00;;;;;;;3.63;1.70;;;25.60;79.50;;;;;;6236497;28;20408;-81
2023/07/05 10:59:06;;;;;;;2.45;2.00;;;25.60;78.30;;;;;;6236748;28;23290;-82
2023/07/05 11:02:21;;;;;;;4.30;2.17;;;25.70;75.20;;;;;;6238035;28;20052;-79
2023/07/05 11:05:29;;;;;;;2.92;2.22;;;25.70;71.10;;;;;;6237288;28;20072;-80
2023/07/05 11:08:35;;;;;;;6.05;2.20;;;25.90;69.90;;;;;;6236353;28;20412;-81
2023/07/05 11:11:42;;;;;;;5.13;2.25;;;26.50;68.00;;;;;;6237240;28;20051;-81
2023/07/05 11:14:44;;;;;;;5.80;2.28;;;26.50;64.90;;;;;;6235849;28;23342;-81
2023/07/05 11:17:48;;;;;;;2.97;2.30;;;26.40;64.00;;;;;;6235838;28;20045;-82
2023/07/05 11:20:51;;;;;;;5.40;2.65;;;26.80;62.10;;;;;;6237110;28;20048;-80
2023/07/05 11:23:55;;;;;;;5.32;2.03;;;26.70;60.00;;;;;;6232445;28;20042;-80
2023/07/05 11:26:57;;;;;;;2.92;2.03;;;26.50;58.90;;;;;;6234554;28;20049;-79
2023/07/05 11:29:59;;;;;;;6.68;2.60;;;26.40;59.50;;;;;;6234000;28;20045;-81
2023/07/05 11:33:17;;;;;;;2.55;1.85;;;26.30;59.60;;;;;;6239658;28;20053;-80
2023/07/05 11:36:31;;;;;;;2.22;1.70;;;26.30;58.30;;;;;;6238431;28;20060;-81
2023/07/05 11:39:34;;;;;;;6.38;2.55;;;26.20;59.60;;;;;;6241285;28;20041;-82
2023/07/05 11:42:39;;;;;;;4.13;2.65;;;26.00;57.90;;;;;;6240703;28;20057;-81
2023/07/05 11:45:46;;;;;;;3.40;2.13;;;25.70;57.50;;;;;;6239195;28;20045;-81
2023/07/05 11:48:49;;;;;;;3.75;1.77;;;25.40;57.60;;;;;;6238969;28;20060;-80
2023/07/05 11:51:55;;;;;;;5.65;2.60;;;25.20;57.50;;;;;;6236865;28;20048;-79
2023/07/05 11:55:05;;;;;;;5.13;2.08;;;25.30;58.20;;;;;;6239184;28;20053;-83
2023/07/05 11:58:12;;;;;;;3.05;1.65;;;25.90;57.90;;;;;;6235620;28;20424;-81
2023/07/05 12:01:21;;;;;;;5.57;2.15;;;26.30;55.40;;;;;;6241612;28;20049;-81
2023/07/05 12:04:24;;;;;;;3.83;2.63;;;26.50;53.90;;;;;;6238682;28;20511;-80
2023/07/05 12:07:39;;;;;;;3.22;1.85;;;26.20;53.40;;;;;;6241901;28;20045;-83
2023/07/05 12:10:46;;;;;;;4.10;1.98;;;26.10;53.00;;;;;;6244224;28;20045;-81
2023/07/05 12:13:47;;;;;;;5.78;2.28;;;25.90;53.50;;;;;;6241632;28;20076;-80
2023/07/05 12:16:51;;;;;;;3.33;1.88;;;26.10;53.10;;;;;;6243922;28;20049;-81
2023/07/05 12:19:57;;;;;;;5.25;2.80;;;26.20;53.50;;;;;;6243641;28;20049;-81
2023/07/05 12:22:59;;;;;;;2.50;2.03;;;26.60;53.00;;;;;;6244372;28;20068;-81
2023/07/05 12:26:06;;;;;;;4.72;2.95;;;26.90;53.00;;;;;;6241644;28;20049;-80
2023/07/05 12:29:21;;;;;;;2.72;2.20;;;27.30;51.70;;;;;;6237940;28;20060;-81
2023/07/05 12:32:26;;;;;;;5.10;2.10;;;27.10;52.10;;;;;;6239727;28;20037;-81
2023/07/05 12:35:29;;;;;;;4.88;1.88;;;27.10;52.10;;;;;;6243395;28;20087;-81
2023/07/05 12:38:32;;;;;;;4.25;2.33;;;27.10;52.30;;;;;;6239699;28;20531;-81
2023/07/05 12:41:34;;;;;;;4.45;2.00;;;27.20;51.80;;;;;;6239477;28;20192;-81
2023/07/05 12:44:38;;;;;;;5.30;2.33;;;27.30;51.70;;;;;;6239943;28;20060;-81
2023/07/05 12:47:41;;;;;;;3.55;2.20;;;27.30;50.50;;;;;;6241892;28;20037;-82
2023/07/05 12:50:44;;;;;;;5.65;2.05;;;27.50;50.60;;;;;;6239582;28;20045;-81
2023/07/05 12:53:46;;;;;;;2.08;1.23;;;27.70;50.10;;;;;;6239498;28;23308;-81
2023/07/05 12:56:50;;;;;;;4.40;1.90;;;27.50;49.30;;;;;;6242594;28;20061;-80
2023/07/05 12:59:54;;;;;;;7.50;2.63;;;27.40;49.00;;;;;;6238395;28;20064;-82
2023/07/05 13:03:00;;;;;;;3.25;1.88;;;27.50;49.60;;;;;;6231428;28;20060;-80
2023/07/05 13:06:03;;;;;;;5.18;1.98;;;27.70;49.40;;;;;;6237218;28;20054;-81
2023/07/05 13:09:07;;;;;;;5.55;1.95;;;28.10;49.40;;;;;;6237783;28;20141;-80
2023/07/05 13:12:09;;;;;;;4.50;1.38;;;28.60;49.40;;;;;;6239101;28;20513;-81
2023/07/05 13:15:11;;;;;;;10.45;2.35;;;28.80;48.20;;;;;;6241215;28;20140;-81
2023/07/05 13:18:27;;;;;;;2.42;2.17;;;28.60;48.00;;;;;;6243504;28;20049;-81
2023/07/05 13:21:42;;;;;;;3.78;1.80;;;28.00;47.60;;;;;;6238208;28;20052;-80
2023/07/05 13:24:49;;;;;;;4.10;1.90;;;28.00;48.00;;;;;;6241636;28;20635;-80
2023/07/05 13:27:54;;;;;;;3.03;1.60;;;27.80;47.10;;;;;;6241849;28;21335;-81
2023/07/05 13:30:57;;;;;;;3.67;1.73;;;27.80;47.50;;;;;;6244209;28;20045;-81
2023/07/05 13:34:00;;;;;;;3.13;2.00;;;28.20;47.10;;;;;;6243234;28;20049;-81
2023/07/05 13:37:08;;;;;;;3.30;1.95;;;27.90;47.00;;;;;;6243098;28;20415;-81
2023/07/05 13:40:19;;;;;;;3.42;2.30;;;27.90;47.40;;;;;;6243354;28;20057;-81
2023/07/05 13:43:20;;;;;;;2.65;1.42;;;28.00;47.40;;;;;;6244466;28;20061;-81
2023/07/05 13:46:22;;;;;;;3.42;1.73;;;28.10;47.30;;;;;;6241981;28;20045;-84
2023/07/05 13:49:24;;;;;;;2.38;1.58;;;28.30;47.30;;;;;;6240488;28;20536;-80
2023/07/05 13:52:27;;;;;;;3.95;1.67;;;28.40;47.30;;;;;;6239252;28;20184;-81
2023/07/05 13:55:29;;;;;;;3.42;1.80;;;28.40;46.20;;;;;;6240814;28;20057;-81
2023/07/05 13:58:31;;;;;;;4.00;2.40;;;28.40;46.40;;;;;;6240358;28;20120;-82
2023/07/05 14:01:33;;;;;;;3.53;2.05;;;28.40;46.40;;;;;;6244613;28;20128;-82
2023/07/05 14:04:35;;;;;;;7.30;2.17;;;28.40;46.70;;;;;;6243707;28;20120;-81
2023/07/05 14:07:38;;;;;;;6.15;2.67;;;28.50;46.60;;;;;;6242087;28;20060;-81
2023/07/05 14:10:43;;;;;;;2.42;1.88;;;28.40;46.60;;;;;;6242382;28;20050;-83
2023/07/05 14:13:44;;;;;;;2.83;1.48;;;28.50;46.50;;;;;;6244180;28;20061;-81
2023/07/05 14:16:46;;;;;;;2.33;1.20;;;28.60;46.10;;;;;;6242794;28;20050;-81
2023/07/05 14:19:48;;;;;;;3.88;1.95;;;28.50;45.60;;;;;;6240842;28;20061;-81
2023/07/05 14:22:51;;;;;;;7.07;2.13;;;28.30;46.00;;;;;;6239400;28;20136;-82
2023/07/05 14:25:53;;;;;;;8.27;1.60;;;28.30;46.00;;;;;;6238608;28;20041;-82
2023/07/05 14:28:55;;;;;;;4.80;1.92;;;28.20;46.20;;;;;;6240288;28;20056;-81
2023/07/05 14:31:57;;;;;;;5.15;2.05;;;28.20;46.00;;;;;;6239975;28;20481;-81
2023/07/05 14:35:01;;;;;;;4.15;1.92;;;28.30;45.90;;;;;;6237362;28;20180;-81
2023/07/05 14:38:04;;;;;;;6.45;1.52;;;28.40;45.80;;;;;;6237769;28;20042;-81
2023/07/05 14:41:06;;;;;;;3.22;1.63;;;28.30;45.30;;;;;;6244996;28;20136;-81
2023/07/05 14:44:09;;;;;;;3.35;1.92;;;28.10;45.20;;;;;;6241795;28;20794;-81
2023/07/05 14:47:11;;;;;;;4.07;1.77;;;27.70;45.60;;;;;;6241959;28;20049;-80
2023/07/05 14:50:13;;;;;;;4.07;1.33;;;27.80;46.20;;;;;;6244233;28;20046;-81
2023/07/05 14:53:31;;;;;;;6.63;1.40;;;28.00;46.00;;;;;;6244361;28;20505;-82
2023/07/05 14:56:32;;;;;;;3.10;1.90;;;28.10;45.70;;;;;;6244045;28;20056;-80
2023/07/05 14:59:34;;;;;;;2.22;1.40;;;28.10;45.50;;;;;;6242476;28;20053;-83
2023/07/05 15:02:53;;;;;;;3.97;2.38;;;28.00;45.20;;;;;;6245928;28;20042;-82
2023/07/05 15:05:57;;;;;;;2.13;1.38;;;27.90;45.30;;;;;;6246637;28;20526;-81
2023/07/05 15:09:00;;;;;;;1.80;1.13;;;27.80;45.30;;;;;;6236935;28;20064;-82
2023/07/05 15:12:03;;;;;;;4.07;1.52;;;27.70;45.30;;;;;;6241476;28;20069;-81
2023/07/05 15:15:15;;;;;;;3.65;1.88;;;27.50;45.20;;;;;;6241242;28;20500;-81
2023/07/05 15:18:17;;;;;;;2.70;1.70;;;27.40;45.50;;;;;;6240749;28;20136;-81
2023/07/05 15:21:21;;;;;;;2.00;1.50;;;27.40;45.60;;;;;;6242516;28;20046;-81
2023/07/05 15:24:25;;;;;;;4.20;1.73;;;27.70;45.80;;;;;;6239796;28;20050;-84
2023/07/05 15:27:26;;;;;;;4.72;2.05;;;27.80;45.40;;;;;;6239811;28;20073;-82
2023/07/05 15:30:28;;;;;;;4.45;1.52;;;27.90;44.90;;;;;;6241402;28;20408;-81
2023/07/05 15:33:30;;;;;;;4.47;1.83;;;27.70;45.50;;;;;;6240406;28;20045;-82
2023/07/05 15:36:32;;;;;;;1.60;1.27;;;27.80;45.00;;;;;;6241246;28;20053;-76
2023/07/05 15:39:35;;;;;;;2.38;1.42;;;27.80;44.90;;;;;;6244812;28;20037;-81
2023/07/05 15:42:53;;;;;;;1.17;0.93;;;27.90;45.00;;;;;;6241281;28;20061;-82
2023/07/05 15:45:56;;;;;;;3.65;1.20;;;27.70;44.60;;;;;;6242801;28;21537;-80
2023/07/05 15:48:57;;;;;;;2.75;1.20;;;27.60;45.30;;;;;;6241156;28;20136;-79
2023/07/05 15:51:59;;;;;;;5.57;1.58;;;27.70;45.30;;;;;;6243067;28;20049;-80
2023/07/05 15:55:02;;;;;;;6.78;2.20;;;28.00;45.00;;;;;;6241831;28;20041;-82
2023/07/05 15:58:05;;;;;;;2.45;1.60;;;28.20;45.00;;;;;;6249840;28;20057;-80